Time;durP1;ratioP1;P1;durP2;ratioP2;P2;SDS_P1;SDS_P2;PMS_P1;PMS_P2;Temp;Humidity;BMP_temperature;BMP_pressure;BME280_temperature;BME280_humidity;BME280_pressure;Samples;Min_cycle;Max_cycle;Signal;HPM_P1;HPM_P2
2023/08/19 00:04:06;;;;;;;4.57;2.60;;;;;;;24.88;67.34;98934.47;7234381;40;20289;31
2023/08/19 00:14:27;;;;;;;5.73;3.00;;;;;;;24.77;67.16;98941.78;7314667;39;21328;31
2023/08/19 00:20:06;;;;;;;6.23;2.93;;;;;;;24.67;67.69;98937.03;7315339;39;20251;31
2023/08/19 00:25:40;;;;;;;5.25;2.60;;;;;;;24.62;68.32;98934.22;7287633;39;20248;31
2023/08/19 00:31:00;;;;;;;4.28;2.50;;;;;;;24.58;67.63;98935.03;7216411;40;20451;31
2023/08/19 00:36:33;;;;;;;6.18;2.85;;;;;;;24.53;66.77;98932.22;7212489;40;20281;31
2023/08/19 00:47:09;;;;;;;3.85;2.50;;;;;;;24.59;66.33;98931.19;7186064;40;21266;31
2023/08/19 00:52:45;;;;;;;5.10;2.42;;;;;;;24.66;67.25;98942.81;7206246;40;20289;31
2023/08/19 01:03:24;;;;;;;7.55;2.92;;;;;;;24.64;67.35;98942.25;7293654;40;22077;31
2023/08/19 01:14:06;;;;;;;7.00;2.90;;;;;;;24.33;68.06;98934.81;7260662;39;20967;31
2023/08/19 01:19:42;;;;;;;5.90;2.80;;;;;;;24.05;70.72;98933.13;7237699;40;20804;31
2023/08/19 01:25:19;;;;;;;4.65;2.95;;;;;;;23.88;71.28;98924.97;7233712;40;21220;31
2023/08/19 01:30:39;;;;;;;8.13;3.17;;;;;;;23.88;69.91;98932.41;7253197;40;20261;31
2023/08/19 01:36:15;;;;;;;4.15;3.00;;;;;;;23.85;71.26;98920.00;7237830;40;20326;31
2023/08/19 01:41:51;;;;;;;5.65;3.50;;;;;;;23.71;70.36;98927.00;7203802;40;20273;31
2023/08/19 01:47:26;;;;;;;7.05;3.20;;;;;;;23.70;71.61;98920.66;7165036;40;20506;31
2023/08/19 01:53:01;;;;;;;4.95;3.35;;;;;;;23.52;71.69;98928.44;7136643;40;20250;31
2023/08/19 01:58:37;;;;;;;5.35;3.10;;;;;;;23.36;72.43;98935.63;7165061;40;20325;31
2023/08/19 02:03:58;;;;;;;7.15;2.92;;;;;;;23.33;71.22;98922.41;7177237;40;20275;31
2023/08/19 02:09:13;;;;;;;6.77;2.87;;;;;;;23.25;71.77;98931.94;7152810;40;20361;31
2023/08/19 02:14:50;;;;;;;4.90;2.90;;;;;;;23.11;72.93;98933.37;7196426;40;20421;31
2023/08/19 02:20:27;;;;;;;5.57;2.95;;;;;;;23.08;71.54;98930.31;7162645;40;20440;31
2023/08/19 02:26:02;;;;;;;8.90;3.25;;;;;;;23.18;72.84;98938.69;7202713;40;20238;31
2023/08/19 02:31:38;;;;;;;3.97;2.72;;;;;;;23.18;71.88;98934.03;7183366;40;20321;31
2023/08/19 02:37:14;;;;;;;4.52;3.16;;;;;;;23.01;72.22;98940.66;7240679;40;20264;31
2023/08/19 02:42:34;;;;;;;5.20;3.37;;;;;;;23.06;72.56;98943.47;7164053;40;20243;31
2023/08/19 02:48:09;;;;;;;4.68;3.00;;;;;;;23.20;71.45;98934.63;7164785;40;20258;31
2023/08/19 02:53:44;;;;;;;6.90;3.00;;;;;;;23.23;72.08;98938.75;7143954;40;20266;31
2023/08/19 02:59:05;;;;;;;6.93;3.00;;;;;;;23.19;72.08;98943.94;7147645;40;20496;31
2023/08/19 03:04:40;;;;;;;4.20;3.10;;;;;;;22.94;72.79;98951.84;7182643;40;20278;31
2023/08/19 03:15:06;;;;;;;6.37;3.60;;;;;;;22.76;72.92;98947.44;7265062;39;20801;31
2023/08/19 03:20:42;;;;;;;7.55;3.55;;;;;;;22.72;73.48;98943.53;7275250;40;20240;31
2023/08/19 03:26:02;;;;;;;5.47;3.22;;;;;;;22.80;73.32;98937.62;7232788;40;20245;31
2023/08/19 03:31:22;;;;;;;6.96;4.28;;;;;;;22.97;72.44;98939.50;7253504;40;20264;31
2023/08/19 03:36:57;;;;;;;10.23;4.87;;;;;;;22.94;72.84;98938.09;7245501;40;20280;31
2023/08/19 03:47:19;;;;;;;5.40;3.50;;;;;;;22.74;72.75;98955.09;7272396;40;22017;31
2023/08/19 03:57:59;;;;;;;4.17;3.77;;;;;;;22.39;74.72;98954.47;7291909;39;21292;31
2023/08/19 04:03:20;;;;;;;7.30;3.40;;;;;;;22.40;74.45;98967.16;7316976;39;20267;31
2023/08/19 04:08:41;;;;;;;7.45;3.50;;;;;;;22.51;74.49;98962.66;7274637;40;20252;31
2023/08/19 04:14:17;;;;;;;6.28;3.40;;;;;;;22.58;73.73;98957.81;7255158;40;20347;31
2023/08/19 04:19:52;;;;;;;10.43;3.67;;;;;;;22.59;73.61;98951.25;7207198;40;20264;31
2023/08/19 04:25:12;;;;;;;4.05;3.10;;;;;;;22.47;73.71;98960.41;7205179;40;20333;31
2023/08/19 04:30:43;;;;;;;7.37;2.97;;;;;;;22.35;74.33;98962.41;7231569;40;20291;31
2023/08/19 04:41:04;;;;;;;3.37;3.00;;;;;;;22.39;74.37;98977.28;7212994;40;21103;31
2023/08/19 04:46:38;;;;;;;8.82;3.45;;;;;;;22.42;74.23;98971.28;7157681;40;20251;31
2023/08/19 04:57:15;;;;;;;6.62;3.35;;;;;;;22.33;74.58;98975.56;7274453;40;20261;31
2023/08/19 05:02:46;;;;;;;8.45;3.42;;;;;;;22.45;73.98;98986.47;7211789;40;20296;31
2023/08/19 05:08:06;;;;;;;4.80;3.40;;;;;;;22.44;74.27;98982.88;7197593;40;20261;31
2023/08/19 05:13:26;;;;;;;8.13;3.45;;;;;;;22.48;74.50;98984.03;7236062;40;20316;31
2023/08/19 05:19:02;;;;;;;5.95;3.33;;;;;;;22.52;75.29;98989.03;7199041;40;20249;31
2023/08/19 05:24:22;;;;;;;4.78;3.15;;;;;;;22.58;74.35;98994.37;7206535;40;20300;31
2023/08/19 05:29:57;;;;;;;6.37;3.62;;;;;;;22.59;74.95;99000.72;7204340;40;20245;31
2023/08/19 05:35:33;;;;;;;5.65;3.22;;;;;;;22.61;75.30;98998.53;7195410;40;20261;31
2023/08/19 05:40:50;;;;;;;5.95;3.30;;;;;;;22.70;74.72;98997.06;7166035;40;20406;31
2023/08/19 05:51:27;;;;;;;6.25;3.40;;;;;;;22.82;75.34;99012.38;7252786;40;21109;31
2023/08/19 06:01:48;;;;;;;5.30;3.70;;;;;;;23.15;75.37;99029.97;7260463;40;21148;31
2023/08/19 06:12:29;;;;;;;6.82;3.70;;;;;;;23.50;76.31;99025.00;7253363;40;22053;31
2023/08/19 06:18:04;;;;;;;8.85;4.05;;;;;;;23.74;75.09;99033.81;7295177;40;20245;31
2023/08/19 06:23:39;;;;;;;4.35;3.30;;;;;;;23.85;75.36;99032.87;7271090;40;20444;31
2023/08/19 06:29:15;;;;;;;5.00;3.55;;;;;;;23.98;73.76;99040.75;7214832;40;20426;31
2023/08/19 06:34:36;;;;;;;8.08;3.22;;;;;;;24.23;72.95;99049.34;7134309;40;20322;31
2023/08/19 06:40:11;;;;;;;5.05;3.30;;;;;;;24.41;73.03;99052.81;7175756;40;20239;31
2023/08/19 06:45:48;;;;;;;10.00;3.50;;;;;;;24.62;72.94;99049.16;7174876;40;20434;31
2023/08/19 06:51:21;;;;;;;5.22;3.42;;;;;;;24.89;72.49;99065.72;6971677;40;20249;31
2023/08/19 06:56:56;;;;;;;6.30;3.30;;;;;;;25.06;71.17;99061.72;7234360;40;20248;31
2023/08/19 07:02:32;;;;;;;7.83;3.47;;;;;;;25.28;70.36;99067.12;7145444;40;20335;31
2023/08/19 07:08:09;;;;;;;6.33;3.60;;;;;;;25.53;70.26;99069.25;7130127;40;20314;31
2023/08/19 07:13:28;;;;;;;7.35;3.40;;;;;;;25.84;68.86;99071.13;7159060;40;20251;31
2023/08/19 07:19:02;;;;;;;8.35;3.60;;;;;;;25.91;67.60;99073.63;7152000;40;20267;31
2023/08/19 07:24:37;;;;;;;5.45;3.53;;;;;;;26.10;67.58;99077.59;7249817;39;20286;31
2023/08/19 07:30:12;;;;;;;4.28;3.30;;;;;;;26.20;68.11;99076.75;7272265;39;20240;31
2023/08/19 07:35:46;;;;;;;5.37;3.47;;;;;;;26.38;67.75;99090.12;7309674;39;20272;31
2023/08/19 07:41:21;;;;;;;4.32;3.75;;;;;;;26.48;68.45;99094.84;7265451;40;20277;31
2023/08/19 07:51:58;;;;;;;6.10;4.37;;;;;;;26.65;68.45;99099.06;7268752;40;21219;31
2023/08/19 07:57:18;;;;;;;8.13;3.37;;;;;;;26.74;67.99;99100.19;7208800;40;20324;31
2023/08/19 08:02:39;;;;;;;5.78;3.70;;;;;;;26.87;67.24;99107.97;7256067;40;20240;31
2023/08/19 08:08:11;;;;;;;5.80;3.90;;;;;;;26.93;66.39;99102.44;7262941;39;20255;31
2023/08/19 08:13:46;;;;;;;8.45;3.70;;;;;;;26.87;66.39;99110.75;7261668;40;20260;31
2023/08/19 08:19:22;;;;;;;6.20;3.40;;;;;;;26.78;66.89;99115.13;7240560;40;20249;31
2023/08/19 08:24:54;;;;;;;7.15;4.10;;;;;;;26.74;66.99;99122.31;7251898;40;20242;31
2023/08/19 08:30:29;;;;;;;6.03;4.10;;;;;;;26.68;67.15;99133.66;7207460;40;20246;31
2023/08/19 08:35:49;;;;;;;7.77;4.20;;;;;;;26.65;67.06;99128.62;7142397;40;20350;31
2023/08/19 08:41:25;;;;;;;4.50;4.00;;;;;;;26.59;67.57;99129.75;7166838;40;20251;31
2023/08/19 08:46:57;;;;;;;6.47;4.07;;;;;;;26.71;68.21;99133.91;7233779;40;20518;31
2023/08/19 08:52:32;;;;;;;7.00;4.40;;;;;;;26.67;67.32;99143.88;7266450;39;20331;31
2023/08/19 08:58:05;;;;;;;6.68;4.28;;;;;;;26.72;68.28;99138.31;7178132;40;20335;31
2023/08/19 09:03:40;;;;;;;6.82;4.10;;;;;;;26.87;67.85;99135.62;7153167;40;20255;31
2023/08/19 09:09:13;;;;;;;8.70;4.33;;;;;;;27.06;66.89;99137.88;7209694;40;20299;31
2023/08/19 09:14:29;;;;;;;7.75;4.25;;;;;;;27.52;65.83;99139.56;7222084;40;20354;31
2023/08/19 09:20:06;;;;;;;7.47;4.70;;;;;;;27.58;65.58;99121.84;7199394;40;20316;31
2023/08/19 09:25:40;;;;;;;10.25;4.60;;;;;;;27.62;64.63;99134.03;7211024;40;20312;31
2023/08/19 09:31:15;;;;;;;6.35;4.35;;;;;;;27.60;65.10;99140.97;7209201;40;20249;31
2023/08/19 09:36:45;;;;;;;6.20;4.40;;;;;;;27.67;65.85;99145.09;7243549;40;21201;31
2023/08/19 09:42:17;;;;;;;7.03;4.55;;;;;;;27.63;65.78;99144.00;7173752;40;21156;31
2023/08/19 09:47:48;;;;;;;6.50;4.40;;;;;;;27.71;66.17;99148.97;7219266;40;20245;31
2023/08/19 09:53:22;;;;;;;7.18;4.50;;;;;;;27.81;66.36;99150.06;7198293;40;20246;31
2023/08/19 09:58:53;;;;;;;8.50;5.03;;;;;;;27.81;65.47;99144.53;7181306;40;21226;31
2023/08/19 10:04:28;;;;;;;7.10;5.14;;;;;;;27.85;64.91;99159.47;7189771;40;20306;31
2023/08/19 10:10:03;;;;;;;8.38;5.10;;;;;;;27.85;65.20;99157.53;7223159;40;20257;31
2023/08/19 10:15:34;;;;;;;8.23;5.05;;;;;;;27.95;65.96;99165.00;7197520;40;20262;31
2023/08/19 10:26:12;;;;;;;7.70;5.00;;;;;;;28.26;65.90;99172.13;7212860;40;20278;31
2023/08/19 10:31:43;;;;;;;6.83;4.80;;;;;;;28.37;65.81;99173.75;7242714;40;20254;31
2023/08/19 10:37:19;;;;;;;8.60;4.70;;;;;;;28.35;66.15;99175.16;7284560;40;20334;31
2023/08/19 10:42:56;;;;;;;6.30;4.80;;;;;;;28.38;65.78;99178.22;7277655;40;20272;31
2023/08/19 10:48:29;;;;;;;10.60;4.94;;;;;;;28.38;65.25;99183.75;7253973;40;20412;31
2023/08/19 10:54:04;;;;;;;7.68;5.07;;;;;;;28.40;64.84;99183.44;7273148;40;20264;31
2023/08/19 10:59:37;;;;;;;10.30;5.33;;;;;;;28.44;64.82;99181.78;7228603;40;20242;31
2023/08/19 11:05:09;;;;;;;8.83;5.10;;;;;;;28.59;64.61;99177.00;7244429;40;20359;31
2023/08/19 11:10:41;;;;;;;5.75;5.15;;;;;;;28.69;64.33;99181.69;7253845;40;20374;31
2023/08/19 11:21:19;;;;;;;6.82;4.40;;;;;;;28.89;63.46;99180.75;7262934;40;20268;31
2023/08/19 11:31:55;;;;;;;4.93;3.62;;;;;;;29.04;58.18;99189.84;7259725;40;20462;31
2023/08/19 11:37:32;;;;;;;6.07;3.70;;;;;;;29.06;58.00;99192.31;7234070;40;20324;31
2023/08/19 11:48:08;;;;;;;4.68;3.85;;;;;;;29.19;58.34;99199.16;7275420;40;20287;31
2023/08/19 11:58:55;;;;;;;5.30;3.90;;;;;;;29.18;58.91;99223.31;7241823;40;20273;31
2023/08/19 12:04:30;;;;;;;6.78;3.87;;;;;;;29.03;58.65;99234.53;7214140;40;20246;31
2023/08/19 12:10:03;;;;;;;4.82;3.80;;;;;;;28.99;58.22;99230.66;7249910;40;20284;31
2023/08/19 12:15:32;;;;;;;6.05;4.03;;;;;;;28.87;59.75;99232.97;7215753;40;20253;31
2023/08/19 12:21:07;;;;;;;5.80;3.77;;;;;;;28.85;60.20;99229.63;7182559;40;20250;31
2023/08/19 12:26:25;;;;;;;7.57;4.70;;;;;;;28.89;59.17;99239.03;7185171;40;20375;31
2023/08/19 12:31:57;;;;;;;7.00;3.90;;;;;;;28.74;59.25;99244.69;7236596;40;20359;31
2023/08/19 12:37:29;;;;;;;8.40;3.96;;;;;;;28.56;59.33;99243.31;7234689;40;20426;31
2023/08/19 12:43:01;;;;;;;5.78;3.65;;;;;;;28.62;59.07;99259.66;7262451;40;20249;31
2023/08/19 12:48:34;;;;;;;7.85;4.35;;;;;;;28.70;58.81;99262.97;7229704;40;20264;31
2023/08/19 12:53:51;;;;;;;8.55;4.18;;;;;;;28.68;59.99;99268.78;7204743;40;20242;31
2023/08/19 12:59:08;;;;;;;6.17;4.17;;;;;;;28.77;60.07;99280.16;7216233;40;20249;31
2023/08/19 13:04:44;;;;;;;6.00;4.30;;;;;;;28.79;61.28;99295.41;7232366;40;20414;31
2023/08/19 13:10:02;;;;;;;7.47;3.97;;;;;;;28.89;61.04;99287.06;7255421;40;20494;31
2023/08/19 13:15:21;;;;;;;3.90;3.50;;;;;;;28.99;60.34;99280.62;7239701;40;20263;31
2023/08/19 13:20:57;;;;;;;7.50;3.97;;;;;;;29.12;60.11;99288.34;7262170;40;20438;31
2023/08/19 13:26:14;;;;;;;4.80;3.90;;;;;;;29.27;60.27;99285.47;7072168;40;20246;31
2023/08/19 13:31:34;;;;;;;5.00;3.95;;;;;;;29.32;60.10;99288.25;7275451;40;20408;31
2023/08/19 13:37:10;;;;;;;4.10;3.70;;;;;;;29.27;60.10;99301.31;7264832;40;20248;31
2023/08/19 13:42:42;;;;;;;9.15;4.05;;;;;;;29.46;58.46;99303.16;7285474;40;20261;31
2023/08/19 13:48:00;;;;;;;4.80;3.78;;;;;;;29.59;59.20;99301.69;7265377;40;20298;31
2023/08/19 13:53:32;;;;;;;6.60;4.30;;;;;;;29.76;58.72;99306.84;7214024;40;20341;31
2023/08/19 13:59:03;;;;;;;4.22;3.83;;;;;;;29.98;58.20;99299.75;7202007;40;22423;31
2023/08/19 14:04:18;;;;;;;4.32;3.80;;;;;;;30.20;57.87;99290.09;7218437;40;20265;31
2023/08/19 14:09:51;;;;;;;4.55;3.53;;;;;;;30.14;56.97;99305.19;7203850;40;20257;31
2023/08/19 14:15:24;;;;;;;5.84;4.26;;;;;;;30.27;57.38;99304.53;7173364;40;20255;31
2023/08/19 14:20:54;;;;;;;5.18;3.55;;;;;;;30.60;57.10;99303.62;7195434;40;21250;31
2023/08/19 14:26:28;;;;;;;5.12;3.20;;;;;;;30.66;55.79;99310.81;7159595;40;21326;31
2023/08/19 14:31:44;;;;;;;5.25;3.37;;;;;;;30.60;57.16;99309.19;7231124;39;20265;31
2023/08/19 14:37:02;;;;;;;7.00;3.90;;;;;;;30.59;55.41;99309.50;7287417;39;20331;31
2023/08/19 14:42:35;;;;;;;5.10;3.50;;;;;;;30.50;56.50;99312.09;7215640;40;20253;31
2023/08/19 14:48:07;;;;;;;4.18;3.30;;;;;;;30.43;56.19;99320.75;7194836;40;20245;31
2023/08/19 14:59:09;;;;;;;4.47;3.45;;;;;;;30.43;56.86;99322.72;7363955;38;9819277;31
2023/08/19 15:04:29;;;;;;;11.40;3.87;;;;;;;30.28;56.85;99323.69;7465603;39;20281;31
2023/08/19 15:10:01;;;;;;;6.75;3.58;;;;;;;30.30;57.58;99320.63;7426553;39;20484;31
2023/08/19 15:15:34;;;;;;;5.70;3.80;;;;;;;30.27;57.60;99330.37;7363500;39;20255;31
2023/08/19 15:20:54;;;;;;;6.42;3.62;;;;;;;30.28;57.66;99337.59;7317937;39;20245;31
2023/08/19 15:26:11;;;;;;;5.84;3.70;;;;;;;30.25;57.51;99338.19;7338706;39;20277;31
2023/08/19 15:36:49;;;;;;;5.93;4.20;;;;;;;30.05;59.22;99345.87;7399894;39;21181;31
2023/08/19 17:02:56;;;;;;;9.57;5.63;;;;;;;29.49;63.54;99352.59;7364737;38;21439;31
2023/08/19 17:08:13;;;;;;;7.80;5.87;;;;;;;29.42;63.69;99351.25;7436483;39;20609;31
2023/08/19 17:18:51;;;;;;;6.25;5.60;;;;;;;29.25;63.96;99350.75;7375114;39;21181;31
2023/08/19 17:24:11;;;;;;;9.68;5.84;;;;;;;29.19;65.00;99352.72;7299730;39;20272;31
2023/08/19 17:29:46;;;;;;;9.68;5.82;;;;;;;29.19;65.64;99363.00;7325966;39;20266;31
2023/08/19 17:35:20;;;;;;;8.02;5.80;;;;;;;29.13;66.28;99348.31;7316054;39;20275;31
2023/08/19 17:40:52;;;;;;;8.14;5.90;;;;;;;29.13;66.64;99353.87;7295426;40;20355;31
2023/08/19 17:46:28;;;;;;;9.65;5.85;;;;;;;29.09;66.90;99369.44;7294180;39;20390;31
2023/08/19 17:52:00;;;;;;;10.25;6.10;;;;;;;29.08;67.41;99367.78;7335549;39;20424;31
2023/08/19 17:57:17;;;;;;;8.05;6.00;;;;;;;29.02;67.09;99368.87;7313967;39;21227;31
2023/08/19 18:02:37;;;;;;;6.87;5.75;;;;;;;28.94;66.16;99367.53;7306583;39;20332;31
2023/08/19 18:08:14;;;;;;;6.37;5.77;;;;;;;28.90;66.48;99369.22;7333613;39;20321;31
2023/08/19 18:13:34;;;;;;;14.75;12.10;;;;;;;28.82;66.98;99367.03;7293885;39;20245;31
2023/08/19 18:19:09;;;;;;;8.00;7.20;;;;;;;28.68;67.87;99357.59;7276152;39;20292;31
2023/08/19 18:29:46;;;;;;;9.10;6.87;;;;;;;28.57;67.67;99365.09;7273517;39;21523;31
2023/08/19 18:40:20;;;;;;;8.23;6.28;;;;;;;28.16;69.84;99374.56;7382816;39;21193;31
2023/08/19 18:50:58;;;;;;;7.62;6.53;;;;;;;28.06;69.83;99375.34;7349989;39;21222;31
2023/08/19 18:56:14;;;;;;;12.82;6.78;;;;;;;28.05;70.87;99382.00;7372539;39;20283;31
2023/08/19 19:06:51;;;;;;;8.85;6.45;;;;;;;28.02;71.26;99399.19;7315450;39;20267;31
2023/08/19 19:12:09;;;;;;;9.77;6.77;;;;;;;27.96;70.99;99421.63;7346001;39;20266;31
2023/08/19 19:17:49;;;;;;;7.50;6.75;;;;;;;27.90;71.53;99428.28;7360557;39;20423;31
2023/08/19 19:23:25;;;;;;;9.40;6.80;;;;;;;27.87;72.60;99426.03;7334732;39;20600;31
2023/08/19 19:28:46;;;;;;;13.40;6.85;;;;;;;27.83;71.98;99433.22;7364970;39;20317;31
2023/08/19 19:34:03;;;;;;;8.57;6.13;;;;;;;27.80;73.27;99434.63;7350950;39;20470;31
2023/08/19 19:39:39;;;;;;;9.30;7.00;;;;;;;27.70;73.36;99440.12;7355119;39;20258;31
2023/08/19 19:44:57;;;;;;;7.60;6.60;;;;;;;27.63;73.24;99434.84;7239703;40;20253;31
2023/08/19 19:50:17;;;;;;;11.80;6.85;;;;;;;27.62;73.51;99435.09;7252540;40;20260;31
2023/08/19 19:55:49;;;;;;;7.80;7.06;;;;;;;27.53;75.04;99440.34;7245913;40;20493;31
2023/08/19 20:06:11;;;;;;;9.02;7.32;;;;;;;27.41;75.00;99453.56;7285434;39;21106;31
2023/08/19 20:16:46;;;;;;;15.77;7.37;;;;;;;27.23;75.62;99442.94;7319096;39;20371;31
2023/08/19 20:27:11;;;;;;;8.70;6.80;;;;;;;27.20;75.84;99457.34;7360559;39;21676;31
2023/08/19 20:32:43;;;;;;;9.24;7.36;;;;;;;27.12;76.28;99455.03;7354024;39;20263;31
2023/08/19 20:43:05;;;;;;;8.52;7.00;;;;;;;27.12;75.89;99460.59;7335952;39;21175;31
2023/08/19 20:48:37;;;;;;;8.35;6.45;;;;;;;27.08;75.93;99465.81;7297859;39;20276;31
2023/08/19 20:59:13;;;;;;;7.50;6.80;;;;;;;27.06;75.53;99478.28;7336482;39;21304;31
2023/08/19 21:09:51;;;;;;;8.10;6.57;;;;;;;26.98;75.36;99484.31;7347697;39;21301;31
2023/08/19 21:20:12;;;;;;;8.75;7.15;;;;;;;26.93;75.66;99473.22;7359413;39;20455;31
2023/08/19 21:25:42;;;;;;;8.05;6.32;;;;;;;26.93;75.88;99485.13;7358531;39;20431;31
2023/08/19 21:31:14;;;;;;;13.70;6.83;;;;;;;26.93;76.25;99484.28;7291393;39;20287;31
2023/08/19 21:36:49;;;;;;;6.70;6.10;;;;;;;26.89;75.03;99484.81;7277156;39;20352;31
2023/08/19 21:42:20;;;;;;;7.15;6.25;;;;;;;26.85;75.60;99478.13;7304282;39;20303;31
2023/08/19 21:47:55;;;;;;;7.35;6.25;;;;;;;26.84;76.17;99487.50;7283754;39;20302;31
2023/08/19 21:53:30;;;;;;;7.60;6.80;;;;;;;26.81;76.07;99489.97;7284365;40;20445;31
2023/08/19 21:59:03;;;;;;;8.88;7.15;;;;;;;26.73;76.40;99493.22;7251599;40;20472;31
2023/08/19 22:09:24;;;;;;;9.45;7.50;;;;;;;26.65;76.66;99500.06;7301389;39;20333;31
2023/08/19 22:15:00;;;;;;;8.32;7.35;;;;;;;26.56;77.49;99503.59;7309023;39;20398;31
2023/08/19 22:20:35;;;;;;;10.20;7.00;;;;;;;26.47;77.51;99492.16;7265032;39;20272;31
2023/08/19 22:26:10;;;;;;;9.40;6.85;;;;;;;26.39;77.82;99489.87;7278257;40;20267;31
2023/08/19 22:31:46;;;;;;;7.90;7.00;;;;;;;26.45;77.18;99494.38;7303087;39;20421;31
2023/08/19 22:37:19;;;;;;;9.25;6.60;;;;;;;26.33;77.64;99490.91;7274974;39;20249;31
2023/08/19 22:42:54;;;;;;;10.90;7.10;;;;;;;26.28;78.03;99496.44;7231882;40;20350;31
2023/08/19 22:48:27;;;;;;;9.20;6.82;;;;;;;26.15;78.01;99507.88;7239832;40;20257;31
2023/08/19 22:53:47;;;;;;;10.15;6.60;;;;;;;26.18;77.66;99501.81;7259491;39;20327;31
2023/08/19 22:59:07;;;;;;;9.77;7.12;;;;;;;26.10;78.95;99500.34;7318191;39;20443;31
2023/08/19 23:09:41;;;;;;;9.32;6.72;;;;;;;26.12;78.35;99502.84;7342946;39;21025;31
2023/08/19 23:15:16;;;;;;;7.90;7.05;;;;;;;26.10;78.42;99513.34;7316250;39;20309;31
2023/08/19 23:20:51;;;;;;;9.30;7.25;;;;;;;26.06;78.59;99507.50;7319717;39;20481;31
2023/08/19 23:26:27;;;;;;;8.15;6.50;;;;;;;25.99;78.67;99504.94;7335617;39;20266;31
2023/08/19 23:31:47;;;;;;;11.65;6.68;;;;;;;25.93;78.03;99507.91;7308439;39;20421;31
2023/08/19 23:37:04;;;;;;;7.92;7.20;;;;;;;25.96;78.50;99507.38;7293331;39;20275;31
2023/08/19 23:42:35;;;;;;;8.60;7.15;;;;;;;25.89;78.92;99499.28;7279834;39;20275;31
2023/08/19 23:53:11;;;;;;;8.90;7.20;;;;;;;25.81;79.08;99494.22;7313637;39;21238;31
2023/08/19 23:58:42;;;;;;;9.45;7.10;;;;;;;25.71;79.06;99496.03;7116335;39;20256;31
